Data for 10/18/2014

Time Sea-Level Adjusted Pressure Absolute Pressure Temperature Relative Humidity Dew Point   
(mb) (inHg) (mb) (inHg) (C) (F) (%) (C) (F)
00:05 1018 30.06 847 25.01 8.3 47 46 -2.5 27.4
00:10 1018 30.06 847 25.01 8.4 47.2 46 -2.7 27.2
00:15 1018 30.06 847 25.01 8.5 47.3 45 -2.6 27.2
00:20 1018 30.06 847 25.01 8.7 47.7 45 -2.6 27.4
00:25 1018 30.06 847 25.01 8.6 47.4 46 -2.3 27.9
00:30 1018 30.06 847 25.01 8.3 46.9 48 -2.1 28.1
00:35 1018 30.06 847 25.01 8.1 46.6 48 -2.3 27.8
00:40 1018 30.06 847 25.01 8.2 46.8 47 -2.3 27.8
00:45 1018 30.06 847 25.01 8.3 46.9 47 -2.5 27.5
00:50 1018 30.06 847 25.01 8.4 47.1 46 -2.6 27.4
00:55 1018 30.06 847 25.01 8.3 47 47 -2.2 28
01:00 1018 30.06 847 25.01 8 46.4 48 -2.2 28
01:05 1018 30.06 847 25.01 7.9 46.1 49 -2.2 28.1
01:10 1018 30.06 847 25.01 7.6 45.6 50 -2.3 27.9
01:15 1018 30.06 847 25.01 7.7 45.8 49 -2.5 27.6
01:20 1018 30.06 847 25.01 8 46.5 46 -2.8 27
01:25 1018 30.06 847 25.01 8.7 47.7 46 -2.3 27.8
01:30 1018 30.06 847 25.01 8.2 46.8 48 -2 28.4
01:35 1018 30.06 847 25.01 7.7 45.9 49 -2.3 27.8
01:40 1018 30.06 847 25.01 7.8 46.1 49 -2.1 28.2
01:45 1018 30.06 847 25.01 7.6 45.6 51 -2 28.4
01:50 1018 30.06 847 25.01 7.2 44.9 52 -2 28.3
01:55 1018 30.06 847 25.01 7.1 44.8 51 -2.3 27.9
02:00 1018 30.06 847 25.01 7.3 45.2 51 -2.2 28
02:05 1018 30.06 847 25.01 7.4 45.4 50 -2.3 27.9
02:10 1018 30.06 847 25.01 7.5 45.5 50 -2.1 28.2
02:15 1018 30.06 847 25.01 7.4 45.4 51 -2.2 28.1
02:20 1018 30.06 847 25.01 7.7 45.8 50 -2 28.4
02:25 1018 30.06 847 25.01 7.9 46.3 50 -1.9 28.5
02:30 1018 30.06 847 25.01 7.9 46.3 49 -2 28.4
02:35 1018 30.06 847 25.01 7.7 45.9 51 -1.7 28.9
02:40 1018 30.06 847 25.01 7.5 45.5 51 -2 28.4
02:45 1018 30.06 847 25.01 7.2 44.9 53 -1.8 28.8
02:50 1018 30.06 847 25.01 6.8 44.3 54 -1.9 28.6
02:55 1018 30.06 847 25.01 6.7 44.1 55 -1.8 28.8
03:00 1018 30.06 847 25.01 6.4 43.6 55 -1.9 28.6
03:05 1018 30.06 847 25.01 6.6 43.9 54 -1.9 28.6
03:10 1018 30.06 847 25.01 6.7 44 55 -1.8 28.7
03:15 1018 30.06 847 25.01 6.7 44 55 -1.8 28.8
03:20 1018 30.06 847 25.01 6.6 43.8 55 -1.7 28.9
03:25 1018 30.06 848 25.04 6.5 43.8 54 -2 28.4
03:30 1018 30.06 848 25.04 6.9 44.5 54 -1.7 28.9
03:35 1018 30.06 848 25.04 6.8 44.3 56 -1.3 29.7
03:40 1018 30.06 848 25.04 6.3 43.3 58 -1.4 29.5
03:45 1018 30.06 848 25.04 6 42.9 61 -0.8 30.5
03:50 1018 30.06 848 25.04 5.5 41.9 65 -0.6 30.9
03:55 1018 30.06 847 25.01 5.3 41.6 65 -0.7 30.8
04:00 1018 30.06 847 25.01 5.5 41.8 63 -1.1 30.1
04:05 1018 30.06 847 25.01 6.1 43 60 -1 30.1
04:10 1018 30.06 847 25.01 6.4 43.5 58 -1.2 29.8
04:15 1018 30.06 847 25.01 6.7 44 56 -1.6 29.1
04:20 1018 30.06 847 25.01 7.3 45.1 54 -1.4 29.5
04:25 1018 30.06 847 25.01 7.1 44.8 55 -1.2 29.8
04:30 1018 30.06 847 25.01 6.8 44.3 57 -1.2 29.9
04:35 1018 30.06 847 25.01 6.6 43.9 57 -1.2 29.9
04:40 1018 30.06 847 25.01 6.6 43.8 57 -1.3 29.6
04:45 1018 30.06 847 25.01 6.8 44.3 56 -1.3 29.6
04:50 1018 30.06 847 25.01 7.1 44.7 56 -1 30.2
04:55 1018 30.06 847 25.01 6.9 44.4 58 -0.9 30.5
05:00 1018 30.06 847 25.01 6.6 43.9 57 -1.2 29.9
05:05 1018 30.06 847 25.01 6.9 44.3 57 -1.1 30.1
05:10 1018 30.06 847 25.01 7 44.6 56 -1.2 29.9
05:15 1018 30.06 847 25.01 7.1 44.8 54 -1.5 29.2
05:20 1018 30.06 847 25.01 7.4 45.2 53 -1.6 29
05:25 1018 30.06 847 25.01 7.5 45.5 54 -1.2 29.8
05:30 1018 30.06 847 25.01 7.6 45.6 55 -0.9 30.3
05:35 1018 30.06 847 25.01 7.2 45 57 -0.8 30.6
05:40 1018 30.06 847 25.01 7 44.6 57 -1 30.3
05:45 1018 30.06 847 25.01 7 44.6 56 -1.2 29.8
05:50 1018 30.06 847 25.01 7 44.7 55 -1.4 29.5
05:55 1018 30.06 847 25.01 7.4 45.3 53 -1.5 29.3
06:00 1018 30.06 847 25.01 7.8 46 53 -1.1 30
06:05 1018 30.06 847 25.01 7.9 46.3 52 -1.2 29.8
06:10 1018 30.06 847 25.01 7.8 46 54 -0.9 30.3
06:15 1018 30.06 847 25.01 7.9 46.2 51 -1.6 29.1
06:20 1018 30.06 847 25.01 8 46.3 52 -1.2 29.9
06:25 1018 30.06 847 25.01 7.9 46.2 53 -0.9 30.3
06:30 1018 30.06 847 25.01 7.4 45.2 55 -1 30.3
06:35 1018 30.06 847 25.01 7.2 44.9 55 -1.2 29.8
06:40 1018 30.06 847 25.01 7.3 45.2 54 -1.2 29.8
06:45 1018 30.06 847 25.01 7.4 45.2 55 -1.1 30
06:50 1018 30.06 847 25.01 7.5 45.4 55 -1 30.3
06:55 1018 30.06 847 25.01 7.2 45 56 -0.9 30.3
07:00 1018 30.06 847 25.01 7 44.7 56 -1.1 30
07:05 1018 30.06 847 25.01 7.2 44.9 55 -1.2 29.9
07:10 1018 30.06 847 25.01 7.2 44.9 56 -0.9 30.3
07:15 1018 30.06 847 25.01 7 44.6 57 -1 30.1
07:20 1018 30.06 847 25.01 6.8 44.3 57 -1.1 30.1
07:25 1018 30.06 848 25.04 6.8 44.2 56 -1.3 29.7
07:30 1018 30.06 848 25.04 7 44.7 55 -1.4 29.4
07:35 1018 30.06 848 25.04 7.5 45.4 53 -1.4 29.5
07:40 1019 30.09 848 25.04 8 46.5 52 -1.2 29.8
07:45 1019 30.09 848 25.04 8.3 47 51 -1.1 30
07:50 1019 30.09 848 25.04 8.7 47.6 50 -1.2 29.9
07:55 1019 30.09 848 25.04 8.7 47.6 51 -0.9 30.4
08:00 1019 30.09 848 25.04 8.7 47.7 49 -1.3 29.7
08:05 1019 30.09 848 25.04 9 48.2 49 -1.1 30
08:10 1019 30.09 848 25.04 9.2 48.5 49 -1 30.3
08:15 1019 30.09 848 25.04 9.6 49.3 48 -0.7 30.8
08:20 1019 30.09 848 25.04 10.1 50.1 47 -0.6 30.8
08:25 1019 30.09 848 25.04 10.9 51.5 44 -0.9 30.4
08:30 1019 30.09 848 25.04 11 51.7 44 -0.7 30.7
08:35 1019 30.09 848 25.04 11.2 52.1 44 -0.6 30.9
08:40 1019 30.09 848 25.04 11.1 52 44 -0.5 31.1
08:45 1019 30.09 848 25.04 11.2 52.1 44 -0.5 31.1
08:50 1019 30.09 848 25.04 11.7 53 43 -0.5 31.2
08:55 1019 30.09 848 25.04 12 53.5 41 -0.7 30.8
09:00 1019 30.09 848 25.04 12.7 54.9 40 -0.4 31.3
09:05 1019 30.09 848 25.04 13 55.4 40 -0.3 31.5
09:10 1019 30.09 848 25.04 12.9 55.2 41 -0.1 31.8
09:15 1019 30.09 848 25.04 12.7 54.8 41 -0.2 31.6
09:20 1019 30.09 848 25.04 12.6 54.8 38 -1.3 29.6
09:25 1019 30.09 848 25.04 12.8 55.1 38 -0.9 30.3
09:30 1019 30.09 848 25.04 12.5 54.5 40 -0.5 31.1
09:35 1019 30.09 848 25.04 12.4 54.3 41 -0.6 31
09:40 1019 30.09 848 25.04 13.2 55.7 38 -0.9 30.4
09:45 1019 30.09 848 25.04 13.9 57 37 -0.6 31
09:50 1019 30.09 848 25.04 14.2 57.6 35 -1 30.1
09:55 1019 30.09 848 25.04 14.8 58.7 35 -0.3 31.4
10:00 1019 30.09 848 25.04 14.8 58.6 35 -0.3 31.5
10:05 1019 30.09 848 25.04 14.6 58.3 35 -0.5 31.1
10:10 1019 30.09 848 25.04 14.6 58.4 35 -0.4 31.2
10:15 1019 30.09 848 25.04 15.4 59.8 32 -0.9 30.4
10:20 1019 30.09 848 25.04 15.8 60.5 31 -1.2 29.9
10:25 1019 30.09 848 25.04 15.8 60.5 32 -0.7 30.8
10:30 1019 30.09 848 25.04 15.8 60.5 34 -0 32
10:35 1019 30.09 848 25.04 16.4 61.5 32 -0.4 31.2
10:40 1019 30.09 848 25.04 16.4 61.6 31 -0.7 30.7
10:45 1019 30.09 848 25.04 16.9 62.5 30 -0.8 30.6
10:50 1019 30.09 848 25.04 17.5 63.5 29 -0.4 31.2
10:55 1019 30.09 848 25.04 17.4 63.3 29 -0.7 30.7
11:00 1019 30.09 848 25.04 17.7 63.8 27 -1.2 29.9
11:05 1019 30.09 848 25.04 18.1 64.6 27 -1 30.3
11:10 1019 30.09 848 25.04 17.8 64 28 -1 30.2
11:15 1019 30.09 848 25.04 17.3 63.1 29 -0.9 30.4
11:20 1019 30.09 848 25.04 17.2 63 28 -1.3 29.6
11:25 1019 30.09 848 25.04 18.3 64.9 27 -0.9 30.4
11:30 1019 30.09 848 25.04 18.5 65.2 27 -0.6 31
11:35 1019 30.09 848 25.04 18 64.4 29 0 32
11:40 1019 30.09 848 25.04 17.7 63.9 28 -0.8 30.5
11:45 1019 30.09 848 25.04 17.5 63.5 31 0.3 32.6
11:50 1019 30.09 848 25.04 17.9 64.3 28 -0.7 30.7
11:55 1019 30.09 848 25.04 18.3 64.9 28 -0.2 31.6
12:00 1019 30.09 848 25.04 18.8 65.8 27 -0.3 31.4
12:05 1019 30.09 848 25.04 18.2 64.7 29 0.1 32.2
12:10 1019 30.09 848 25.04 18.6 65.5 28 0 32
12:15 1019 30.09 848 25.04 18.7 65.6 28 0.1 32.2
12:20 1019 30.09 848 25.04 18.7 65.6 28 0.2 32.3
12:25 1019 30.09 848 25.04 18.4 65 26 -1.3 29.7
12:30 1019 30.09 848 25.04 19 66.2 27 -0.4 31.3
12:35 1019 30.09 848 25.04 18.7 65.6 26 -1 30.3
12:40 1019 30.09 848 25.04 19.3 66.7 25 -0.9 30.4
12:45 1018 30.06 848 25.04 18.6 65.4 26 -1.1 30
12:50 1018 30.06 848 25.04 19.2 66.6 26 -0.8 30.6
12:55 1018 30.06 848 25.04 19.3 66.7 26 -0.8 30.6
13:00 1018 30.06 848 25.04 19.9 67.9 25 -0.8 30.6
13:05 1018 30.06 848 25.04 20.4 68.7 24 -0.4 31.3
13:10 1018 30.06 847 25.01 20.2 68.4 25 -0.4 31.3
13:15 1018 30.06 847 25.01 19.5 67 26 -0.6 30.9
13:20 1018 30.06 847 25.01 20.4 68.7 23 -1.1 30.1
13:25 1018 30.06 847 25.01 19.8 67.6 24 -1.5 29.3
13:30 1018 30.06 847 25.01 19.9 67.9 24 -1 30.2
13:35 1018 30.06 847 25.01 19.7 67.5 25 -0.8 30.6
13:40 1018 30.06 847 25.01 19.9 67.9 24 -1.2 29.8
13:45 1018 30.06 847 25.01 19.1 66.4 26 -0.9 30.4
13:50 1018 30.06 847 25.01 19.4 67 25 -0.9 30.5
13:55 1018 30.06 848 25.04 19 66.1 25 -1.2 29.8
14:00 1018 30.06 848 25.04 20 68.1 23 -1.3 29.7
14:05 1018 30.06 848 25.04 20.1 68.1 24 -0.9 30.4
14:10 1018 30.06 848 25.04 20 68 24 -0.8 30.6
14:15 1018 30.06 848 25.04 19.9 67.9 24 -1.2 29.9
14:20 1018 30.06 848 25.04 19.5 67.1 25 -1 30.1
14:25 1018 30.06 848 25.04 19.3 66.7 25 -0.9 30.3
14:30 1019 30.09 848 25.04 19.2 66.5 25 -1.1 30.1
14:35 1019 30.09 848 25.04 19.7 67.5 24 -1.3 29.6
14:40 1019 30.09 848 25.04 19.5 67 25 -0.9 30.4
14:45 1019 30.09 848 25.04 19.3 66.7 26 -0.7 30.8
14:50 1019 30.09 848 25.04 19 66.2 26 -0.7 30.7
14:55 1019 30.09 848 25.04 18.9 66.1 26 -1 30.2
15:00 1019 30.09 848 25.04 18.8 65.9 24 -1.8 28.8
15:05 1018 30.06 848 25.04 19.4 66.9 23 -2 28.5
15:10 1019 30.09 848 25.04 19.8 67.7 23 -1.9 28.5
15:15 1018 30.06 848 25.04 20.2 68.4 22 -2 28.4
15:20 1018 30.06 848 25.04 20.3 68.6 22 -1.7 28.9
15:25 1018 30.06 848 25.04 20.4 68.6 22 -1.6 29.1
15:30 1018 30.06 848 25.04 20.5 68.9 22 -1.7 29
15:35 1018 30.06 848 25.04 20.4 68.8 22 -2.1 28.2
15:40 1018 30.06 848 25.04 20.4 68.7 23 -1.4 29.4
15:45 1018 30.06 848 25.04 20.4 68.8 22 -1.6 29.1
15:50 1018 30.06 848 25.04 20.5 68.8 23 -1.3 29.6
15:55 1018 30.06 848 25.04 20.5 68.9 24 -0.7 30.8
16:00 1018 30.06 848 25.04 20.4 68.6 24 -0.8 30.5
16:05 1018 30.06 848 25.04 20.2 68.4 23 -1.1 29.9
16:10 1018 30.06 848 25.04 20 67.9 24 -1 30.1
16:15 1018 30.06 848 25.04 20 68 25 -0.7 30.8
16:20 1018 30.06 848 25.04 20 67.9 25 -0.7 30.8
16:25 1018 30.06 848 25.04 20 68 25 -0.6 30.9
16:30 1018 30.06 847 25.01 19.7 67.5 26 -0.3 31.4
16:35 1018 30.06 847 25.01 19 66.1 27 -0.5 31
16:40 1018 30.06 847 25.01 18.9 65.9 27 -0.4 31.2
16:45 1018 30.06 847 25.01 18.5 65.2 27 -0.5 31.1
16:50 1018 30.06 847 25.01 18.2 64.8 27 -0.8 30.6
16:55 1018 30.06 847 25.01 18.1 64.5 27 -1.1 29.9
17:00 1018 30.06 847 25.01 17.9 64.2 28 -0.7 30.7
17:05 1018 30.06 847 25.01 17.8 64 27 -1.1 30
17:10 1018 30.06 847 25.01 17.5 63.6 30 -0.1 31.8
17:15 1018 30.06 847 25.01 16.8 62.2 32 0.2 32.3
17:20 1018 30.06 847 25.01 16.3 61.4 33 0.1 32.2
17:25 1018 30.06 847 25.01 15.9 60.6 34 -0.1 31.9
17:30 1018 30.06 847 25.01 15.4 59.7 34 -0.1 31.8
17:35 1018 30.06 847 25.01 14.9 58.9 36 0.2 32.4
17:40 1018 30.06 847 25.01 14.6 58.3 41 1.5 34.6
17:45 1018 30.06 847 25.01 14.4 58 38 0.3 32.6
17:50 1018 30.06 847 25.01 14.1 57.4 39 0.3 32.6
17:55 1018 30.06 847 25.01 13.8 56.9 40 0.4 32.7
18:00 1018 30.06 847 25.01 13.5 56.3 41 0.4 32.8
18:05 1018 30.06 847 25.01 13.2 55.8 42 0.8 33.5
18:10 1018 30.06 847 25.01 12.9 55.2 44 0.9 33.7
18:15 1018 30.06 848 25.04 12.7 54.8 44 0.8 33.4
18:20 1018 30.06 848 25.04 12.6 54.6 44 0.7 33.2
18:25 1018 30.06 848 25.04 12.4 54.3 45 0.8 33.5
18:30 1018 30.06 848 25.04 12.4 54.2 45 0.8 33.5
18:35 1018 30.06 848 25.04 12.1 53.8 46 0.8 33.4
18:40 1018 30.06 848 25.04 11.9 53.4 46 0.8 33.4
18:45 1019 30.09 848 25.04 11.7 53 48 1 33.8
18:50 1019 30.09 848 25.04 11 51.7 50 1.1 34
18:55 1019 30.09 848 25.04 10.5 50.9 51 0.9 33.7
19:00 1019 30.09 848 25.04 10.5 50.9 50 0.7 33.2
19:05 1019 30.09 848 25.04 10.6 51.1 48 0.2 32.4
19:10 1019 30.09 848 25.04 10.8 51.5 49 0.5 32.9
19:15 1019 30.09 848 25.04 10.7 51.3 49 0.6 33
19:20 1019 30.09 848 25.04 10.6 51.1 50 0.7 33.2
19:25 1019 30.09 848 25.04 10.5 50.8 51 0.7 33.3
19:30 1019 30.09 848 25.04 10.4 50.7 51 0.7 33.3
19:35 1019 30.09 848 25.04 10.4 50.8 51 0.7 33.2
19:40 1019 30.09 848 25.04 10.4 50.7 52 0.9 33.6
19:45 1019 30.09 848 25.04 10 49.9 53 0.8 33.5
19:50 1019 30.09 848 25.04 9.8 49.7 51 0.1 32.2
19:55 1019 30.09 848 25.04 10.5 51 47 -0.4 31.3
20:00 1019 30.09 848 25.04 11 51.7 46 -0 32
20:05 1019 30.09 848 25.04 10.9 51.7 46 -0.3 31.4
20:10 1019 30.09 848 25.04 11.1 52.1 45 -0.2 31.7
20:15 1019 30.09 848 25.04 11.2 52.1 46 0.1 32.2
20:20 1019 30.09 849 25.07 10.9 51.5 48 0.2 32.4
20:25 1020 30.12 849 25.07 10.6 51 48 0 32
20:30 1020 30.12 849 25.07 10.7 51.2 48 0.1 32.2
20:35 1020 30.12 849 25.07 10.8 51.4 47 0 32.1
20:40 1020 30.12 849 25.07 10.9 51.5 47 -0.1 31.9
20:45 1020 30.12 849 25.07 10.7 51.3 48 0.1 32.2
20:50 1020 30.12 849 25.07 10.6 51 49 0.2 32.4
20:55 1020 30.12 849 25.07 10.2 50.4 50 0.3 32.5
21:00 1020 30.12 849 25.07 10.2 50.3 50 0.2 32.3
21:05 1020 30.12 849 25.07 10.1 50.1 49 -0.1 31.9
21:10 1020 30.12 849 25.07 10.2 50.3 50 0.3 32.6
21:15 1020 30.12 849 25.07 9.4 49 54 0.6 33
21:20 1020 30.12 849 25.07 8.9 48 55 0.3 32.5
21:25 1020 30.12 849 25.07 9.1 48.3 53 0 32.1
21:30 1020 30.12 849 25.07 9.1 48.3 53 0.1 32.2
21:35 1020 30.12 849 25.07 9 48.1 53 -0.1 31.8
21:40 1020 30.12 849 25.07 9 48.3 53 -0 31.9
21:45 1020 30.12 849 25.07 8.9 48.1 54 0.2 32.3
21:50 1020 30.12 849 25.07 8.6 47.5 55 0.1 32.2
21:55 1020 30.12 849 25.07 8.4 47.1 55 0 32
22:00 1020 30.12 849 25.07 8.2 46.8 55 -0.1 31.7
22:05 1020 30.12 849 25.07 8.2 46.7 56 0 32
22:10 1020 30.12 849 25.07 7.5 45.5 59 0.1 32.1
22:15 1020 30.12 849 25.07 7.5 45.6 56 -0.5 31.1
22:20 1020 30.12 849 25.07 8.2 46.7 53 -0.7 30.7
22:25 1020 30.12 849 25.07 8.5 47.2 54 -0.3 31.5
22:30 1020 30.12 849 25.07 8.1 46.6 53 -0.8 30.5
22:35 1020 30.12 850 25.1 8.3 47 55 -0.3 31.5
22:40 1020 30.12 850 25.1 8.1 46.6 52 -1 30.2
22:45 1020 30.12 850 25.1 8.5 47.3 52 -0.6 30.9
22:50 1020 30.12 850 25.1 8.2 46.7 53 -0.9 30.4
22:55 1020 30.12 850 25.1 8.4 47.1 51 -1.1 30
23:00 1020 30.12 850 25.1 8.8 47.9 50 -1.1 30
23:05 1020 30.12 850 25.1 9.3 48.7 48 -1.1 30
23:10 1020 30.12 850 25.1 9.8 49.7 47 -1.1 30.1
23:15 1020 30.12 849 25.07 9.9 49.7 48 -0.5 31.1
23:20 1020 30.12 849 25.07 9.3 48.8 50 -0.5 31.1
23:25 1020 30.12 850 25.1 8.7 47.7 53 -0.4 31.2
23:30 1020 30.12 850 25.1 8.3 46.9 53 -0.8 30.5
23:35 1020 30.12 849 25.07 8.5 47.4 52 -0.6 30.9
23:40 1020 30.12 849 25.07 8.4 47.1 52 -0.9 30.4
23:45 1020 30.12 849 25.07 8.5 47.4 51 -1 30.2
23:50 1020 30.12 849 25.07 8.4 47.1 52 -0.7 30.7
23:55 1020 30.12 849 25.07 8.2 46.7 53 -0.8 30.5
24:00 1020 30.12 850 25.1 7.9 46.2 54 -0.9 30.5